createdAt,value
2019-06-13T00:00:24.027Z,0
2019-06-13T00:02:09.732Z,0
2019-06-13T00:03:11.685Z,0
2019-06-13T00:04:11.703Z,0
2019-06-13T00:05:09.638Z,0
2019-06-13T00:06:11.412Z,0
2019-06-13T00:08:11.497Z,0
2019-06-13T00:09:09.867Z,0
2019-06-13T00:10:11.491Z,0
2019-06-13T00:11:11.977Z,0
2019-06-13T00:12:11.312Z,0
2019-06-13T00:13:12.153Z,0
2019-06-13T00:15:11.390Z,0
2019-06-13T00:16:24.195Z,0
2019-06-13T00:17:11.723Z,0
2019-06-13T00:18:11.419Z,0
2019-06-13T00:19:12.317Z,0
2019-06-13T00:20:24.106Z,0
2019-06-13T00:21:11.473Z,0
2019-06-13T00:22:11.977Z,0
2019-06-13T00:23:11.716Z,0
2019-06-13T00:24:11.562Z,0
2019-06-13T00:26:11.589Z,0
2019-06-13T00:27:12.160Z,0
2019-06-13T00:28:11.415Z,0
2019-06-13T00:29:11.232Z,0
2019-06-13T00:30:11.181Z,0
2019-06-13T00:31:12.173Z,0
2019-06-13T00:32:24.539Z,0
2019-06-13T00:33:11.461Z,0
2019-06-13T00:34:12.078Z,0
2019-06-13T00:35:11.692Z,0
2019-06-13T00:36:15.801Z,0
2019-06-13T00:37:11.857Z,0
2019-06-13T00:39:11.574Z,0
2019-06-13T00:40:11.189Z,0
2019-06-13T00:41:12.232Z,0
2019-06-13T00:42:11.754Z,0
2019-06-13T00:43:11.656Z,0
2019-06-13T00:44:24.668Z,0
2019-06-13T00:45:11.732Z,0
2019-06-13T00:46:11.259Z,0
2019-06-13T00:47:24.836Z,0
2019-06-13T00:48:12.233Z,0
2019-06-13T00:49:12.086Z,0
2019-06-13T00:50:11.281Z,0
2019-06-13T00:51:24.831Z,0
2019-06-13T00:52:11.257Z,0
2019-06-13T00:53:12.039Z,0
2019-06-13T00:54:12.032Z,0
2019-06-13T00:55:11.416Z,0
2019-06-13T00:56:12.104Z,0
2019-06-13T00:57:11.762Z,0
2019-06-13T00:58:24.997Z,0
2019-06-13T00:59:25.015Z,0
2019-06-13T01:01:12.779Z,0
2019-06-13T01:02:12.243Z,0
2019-06-13T01:03:12.150Z,0
2019-06-13T01:05:12.748Z,0
2019-06-13T01:06:32.446Z,0
2019-06-13T01:07:13.207Z,0
2019-06-13T01:08:24.987Z,0
2019-06-13T01:09:11.993Z,0
2019-06-13T01:10:13.939Z,0
2019-06-13T01:11:12.392Z,0
2019-06-13T01:12:11.303Z,0
2019-06-13T01:13:12.189Z,0
2019-06-13T01:14:25.366Z,0
2019-06-13T01:16:25.423Z,0
2019-06-13T01:17:11.691Z,0
2019-06-13T01:18:25.210Z,0
2019-06-13T01:19:25.480Z,0
2019-06-13T01:20:13.011Z,0
2019-06-13T01:21:13.885Z,0
2019-06-13T01:22:12.093Z,0
2019-06-13T01:23:12.394Z,0
2019-06-13T01:24:13.336Z,0
2019-06-13T01:25:12.542Z,0
2019-06-13T01:26:13.555Z,0
2019-06-13T01:27:12.233Z,0
2019-06-13T01:28:13.613Z,0
2019-06-13T01:29:12.103Z,0
2019-06-13T01:30:13.705Z,0
2019-06-13T01:31:14.226Z,0
2019-06-13T01:33:13.869Z,0
2019-06-13T01:34:14.027Z,0
2019-06-13T01:35:25.850Z,0
2019-06-13T01:36:14.129Z,0
2019-06-13T01:37:12.109Z,0
2019-06-13T01:38:11.596Z,0
2019-06-13T01:39:14.065Z,0
2019-06-13T01:41:12.306Z,0
2019-06-13T01:42:28.846Z,0
2019-06-13T01:44:13.454Z,0
2019-06-13T01:45:12.283Z,0
2019-06-13T01:46:12.272Z,0
2019-06-13T01:47:13.868Z,0
2019-06-13T01:48:33.534Z,0
2019-06-13T01:49:13.757Z,0
2019-06-13T01:50:14.003Z,0
2019-06-13T01:51:28.446Z,0
2019-06-13T01:52:14.223Z,0
2019-06-13T01:53:13.727Z,0
2019-06-13T01:54:13.708Z,0
2019-06-13T01:55:14.187Z,0
2019-06-13T01:56:14.326Z,0
2019-06-13T01:57:13.697Z,0
2019-06-13T01:58:13.834Z,0
2019-06-13T01:59:13.546Z,0
2019-06-13T02:00:43.573Z,0
2019-06-13T02:01:14.219Z,0
2019-06-13T02:02:14.228Z,0
2019-06-13T02:04:13.577Z,4
2019-06-13T02:05:13.939Z,4
2019-06-13T02:06:13.457Z,4
2019-06-13T02:07:28.736Z,4
2019-06-13T02:08:14.288Z,4
2019-06-13T02:09:29.510Z,0
2019-06-13T02:10:14.293Z,0
2019-06-13T02:11:13.690Z,4
2019-06-13T02:12:14.694Z,4
2019-06-13T02:13:13.630Z,4
2019-06-13T02:14:14.563Z,4
2019-06-13T02:15:14.049Z,8
2019-06-13T02:16:13.984Z,4
2019-06-13T02:18:14.119Z,8
2019-06-13T02:20:13.889Z,8
2019-06-13T02:21:14.217Z,8
2019-06-13T02:22:29.465Z,12
2019-06-13T02:23:14.074Z,8
2019-06-13T02:24:13.519Z,12
2019-06-13T02:25:14.548Z,12
2019-06-13T02:26:13.913Z,16
2019-06-13T02:27:13.675Z,20
2019-06-13T02:28:13.831Z,20
2019-06-13T02:29:29.361Z,24
2019-06-13T02:30:30.820Z,24
2019-06-13T02:31:15.746Z,28
2019-06-13T02:32:34.048Z,36
2019-06-13T02:33:20.379Z,36
2019-06-13T02:34:16.270Z,36
2019-06-13T02:35:16.079Z,40
2019-06-13T02:36:15.379Z,44
2019-06-13T02:37:46.866Z,52
2019-06-13T02:38:15.429Z,56
2019-06-13T02:39:15.949Z,64
2019-06-13T02:40:15.976Z,68
2019-06-13T02:41:15.502Z,76
2019-06-13T02:43:16.271Z,100
2019-06-13T02:44:13.681Z,112
2019-06-13T02:45:15.466Z,124
2019-06-13T02:46:16.072Z,136
2019-06-13T02:47:14.541Z,144
2019-06-13T02:48:15.633Z,152
2019-06-13T02:49:15.300Z,152
2019-06-13T02:50:15.216Z,156
2019-06-13T02:51:15.814Z,152
2019-06-13T02:52:16.220Z,152
2019-06-13T02:53:14.891Z,160
2019-06-13T02:54:29.969Z,184
2019-06-13T02:55:16.214Z,204
2019-06-13T02:56:24.233Z,244
2019-06-13T02:57:13.799Z,276
2019-06-13T02:58:14.085Z,316
2019-06-13T02:59:14.678Z,368
2019-06-13T03:00:22.206Z,424
2019-06-13T03:01:14.479Z,460
2019-06-13T03:02:14.779Z,504
2019-06-13T03:03:14.083Z,540
2019-06-13T03:04:14.430Z,552
2019-06-13T03:05:15.110Z,544
2019-06-13T03:06:29.890Z,528
2019-06-13T03:07:15.046Z,516
2019-06-13T03:09:15.312Z,476
2019-06-13T03:10:29.953Z,444
2019-06-13T03:11:14.822Z,428
2019-06-13T03:12:14.375Z,424
2019-06-13T03:13:14.221Z,444
2019-06-13T03:14:16.261Z,480
2019-06-13T03:15:14.749Z,520
2019-06-13T03:16:16.569Z,556
2019-06-13T03:17:14.611Z,572
2019-06-13T03:18:16.347Z,596
2019-06-13T03:19:16.312Z,640
2019-06-13T03:20:15.126Z,700
2019-06-13T03:21:31.526Z,792
2019-06-13T03:23:14.901Z,924
2019-06-13T03:24:14.662Z,1008
2019-06-13T03:25:16.196Z,1112
2019-06-13T03:26:29.890Z,1212
2019-06-13T03:27:14.696Z,1280
2019-06-13T03:28:15.001Z,1392
2019-06-13T03:29:15.001Z,1504
2019-06-13T03:30:41.781Z,1636
2019-06-13T03:31:20.673Z,1660
2019-06-13T03:33:16.353Z,1740
2019-06-13T03:35:16.181Z,1848
2019-06-13T03:36:16.689Z,1896
2019-06-13T03:37:14.951Z,1984
2019-06-13T03:39:18.849Z,2308
2019-06-13T03:40:31.585Z,2628
2019-06-13T03:41:18.788Z,2852
2019-06-13T03:42:29.664Z,3244
2019-06-13T03:43:16.277Z,3568
2019-06-13T03:44:18.789Z,4232
2019-06-13T03:45:19.371Z,4084
2019-06-13T03:46:14.962Z,4392
2019-06-13T03:47:16.631Z,4676
2019-06-13T03:48:19.311Z,4768
2019-06-13T03:49:20.645Z,4948
2019-06-13T03:50:31.507Z,5124
2019-06-13T03:51:15.451Z,4984
2019-06-13T03:52:16.456Z,5204
2019-06-13T03:53:16.186Z,5412
2019-06-13T03:54:19.004Z,5556
2019-06-13T03:55:16.357Z,5920
2019-06-13T03:56:31.515Z,6332
2019-06-13T03:57:31.901Z,6504
2019-06-13T03:58:19.816Z,6664
2019-06-13T04:01:26.200Z,7476
2019-06-13T04:02:16.376Z,7036
2019-06-13T04:03:19.590Z,7188
2019-06-13T04:04:16.488Z,7412
2019-06-13T04:05:19.735Z,7484
2019-06-13T04:06:19.194Z,7468
2019-06-13T04:07:16.271Z,7460
2019-06-13T04:08:32.013Z,8684
2019-06-13T04:09:19.032Z,13028
2019-06-13T04:11:16.317Z,36896
2019-06-13T04:12:16.716Z,39968
2019-06-13T04:13:16.534Z,40320
2019-06-13T04:14:19.802Z,41408
2019-06-13T04:15:17.161Z,40192
2019-06-13T04:17:31.511Z,43936
2019-06-13T04:18:16.847Z,43776
2019-06-13T04:19:19.205Z,41472
2019-06-13T04:20:31.591Z,40992
2019-06-13T04:21:16.580Z,42208
2019-06-13T04:22:31.937Z,42976
2019-06-13T04:23:16.901Z,43424
2019-06-13T04:24:18.987Z,41952
2019-06-13T04:25:19.862Z,41568
2019-06-13T04:26:19.497Z,43648
2019-06-13T04:27:16.165Z,44064
2019-06-13T04:28:16.313Z,45120
2019-06-13T04:29:31.744Z,46880
2019-06-13T04:30:52.404Z,44320
2019-06-13T04:32:32.095Z,49472
2019-06-13T04:33:32.080Z,50400
2019-06-13T04:34:19.604Z,52832
2019-06-13T04:35:17.374Z,54112
2019-06-13T04:36:31.954Z,52352
2019-06-13T04:37:16.958Z,51648
2019-06-13T04:38:38.026Z,53568
2019-06-13T04:39:19.744Z,54016
2019-06-13T04:40:18.877Z,55008
2019-06-13T04:41:19.544Z,55808
2019-06-13T04:42:16.922Z,56224
2019-06-13T04:43:19.560Z,57824
2019-06-13T04:44:19.659Z,57664
2019-06-13T04:45:32.029Z,52992
2019-06-13T04:46:19.649Z,17856
2019-06-13T04:47:19.002Z,50336
2019-06-13T04:48:19.719Z,53920
2019-06-13T04:49:19.829Z,32768
2019-06-13T04:51:19.445Z,8100
2019-06-13T04:52:16.794Z,8020
2019-06-13T04:53:19.515Z,8104
2019-06-13T04:55:16.543Z,8560
2019-06-13T04:56:19.067Z,8632
2019-06-13T04:57:16.485Z,8812
2019-06-13T04:58:20.072Z,7624
2019-06-13T05:00:35.875Z,7252
2019-06-13T05:01:31.662Z,7760
2019-06-13T05:03:32.587Z,7788
2019-06-13T05:04:19.987Z,6844
2019-06-13T05:05:19.651Z,5372
2019-06-13T05:06:31.769Z,4188
2019-06-13T05:07:19.446Z,3768
2019-06-13T05:09:16.509Z,3116
2019-06-13T05:10:22.121Z,3040
2019-06-13T05:11:16.616Z,3116
2019-06-13T05:13:20.232Z,3844
2019-06-13T05:14:21.836Z,4068
2019-06-13T05:15:31.704Z,3788
2019-06-13T05:16:19.028Z,3676
2019-06-13T05:17:32.105Z,3888
2019-06-13T05:18:32.454Z,3980
2019-06-13T05:19:19.879Z,3756
2019-06-13T05:20:31.892Z,3052
2019-06-13T05:21:19.819Z,2692
2019-06-13T05:22:16.762Z,2360
2019-06-13T05:23:20.112Z,2124
2019-06-13T05:24:16.989Z,1944
2019-06-13T05:25:21.912Z,1800
2019-06-13T05:26:19.304Z,1712
2019-06-13T05:27:19.225Z,1660
2019-06-13T05:28:31.936Z,1604
2019-06-13T05:29:18.841Z,1576
2019-06-13T05:30:24.814Z,1528
2019-06-13T05:31:31.706Z,1488
2019-06-13T05:32:32.495Z,1472
2019-06-13T05:33:35.858Z,1500
2019-06-13T05:34:19.295Z,1544
2019-06-13T05:36:20.365Z,1628
2019-06-13T05:37:17.167Z,1668
2019-06-13T05:38:20.552Z,1720
2019-06-13T05:39:25.994Z,1800
2019-06-13T05:40:32.233Z,1892
2019-06-13T05:41:20.040Z,1964
2019-06-13T05:42:19.472Z,2036
2019-06-13T05:43:19.271Z,2076
2019-06-13T05:44:19.702Z,2100
2019-06-13T05:45:19.652Z,2132
2019-06-13T05:46:19.696Z,2192
2019-06-13T05:47:19.685Z,2248
2019-06-13T05:48:19.886Z,2272
2019-06-13T05:49:20.047Z,2292
2019-06-13T05:50:19.924Z,2304
2019-06-13T05:51:17.493Z,2320
2019-06-13T05:52:20.286Z,2320
2019-06-13T05:53:19.953Z,2236
2019-06-13T05:54:19.994Z,2128
2019-06-13T05:55:20.219Z,2040
2019-06-13T05:56:19.923Z,2016
2019-06-13T05:57:25.753Z,2056
2019-06-13T05:59:19.150Z,2352
2019-06-13T06:00:32.375Z,2536
2019-06-13T06:01:20.336Z,2564
2019-06-13T06:02:19.465Z,2548
2019-06-13T06:03:19.793Z,2536
2019-06-13T06:04:36.314Z,2604
2019-06-13T06:05:19.442Z,2676
2019-06-13T06:07:20.110Z,2880
2019-06-13T06:08:19.133Z,2988
2019-06-13T06:09:45.521Z,3116
2019-06-13T06:10:19.119Z,3148
2019-06-13T06:11:22.123Z,3216
2019-06-13T06:12:32.683Z,3272
2019-06-13T06:13:20.283Z,3284
2019-06-13T06:14:19.023Z,3304
2019-06-13T06:16:32.774Z,3416
2019-06-13T06:17:19.459Z,3432
2019-06-13T06:18:20.542Z,3408
2019-06-13T06:19:19.158Z,3400
2019-06-13T06:20:34.339Z,3452
2019-06-13T06:21:22.069Z,3504
2019-06-13T06:22:20.008Z,3560
2019-06-13T06:23:40.451Z,3652
2019-06-13T06:24:23.836Z,3736
2019-06-13T06:25:34.493Z,3956
2019-06-13T06:26:22.280Z,4056
2019-06-13T06:27:19.303Z,4188
2019-06-13T06:28:33.057Z,4388
2019-06-13T06:29:33.080Z,4488
2019-06-13T06:30:21.517Z,4536
2019-06-13T06:31:20.138Z,4524
2019-06-13T06:33:19.851Z,4700
2019-06-13T06:34:19.351Z,4824
2019-06-13T06:35:19.641Z,4948
2019-06-13T06:36:34.806Z,5228
2019-06-13T06:37:19.792Z,5440
2019-06-13T06:38:19.445Z,5840
2019-06-13T06:40:33.354Z,7472
2019-06-13T06:41:19.161Z,8236
2019-06-13T06:42:20.055Z,9416
2019-06-13T06:43:19.805Z,10928
2019-06-13T06:44:33.445Z,14944
2019-06-13T06:45:20.749Z,30464
2019-06-13T06:46:19.599Z,19872
2019-06-13T06:47:33.522Z,11944
2019-06-13T06:48:20.426Z,10376
2019-06-13T06:49:19.578Z,8792
2019-06-13T06:50:20.125Z,7552
2019-06-13T06:52:34.703Z,6068
2019-06-13T06:53:20.087Z,5904
2019-06-13T06:55:19.622Z,5780
2019-06-13T06:56:21.529Z,5724
2019-06-13T06:57:19.991Z,5592
2019-06-13T06:58:22.323Z,5392
2019-06-13T06:59:33.813Z,5128
2019-06-13T07:00:21.909Z,4976
2019-06-13T07:02:21.950Z,4692
2019-06-13T07:03:21.051Z,4564
2019-06-13T07:04:24.004Z,4420
2019-06-13T07:05:21.614Z,4304
2019-06-13T07:06:22.019Z,4116
2019-06-13T07:07:34.523Z,3872
2019-06-13T07:08:21.967Z,3728
2019-06-13T07:09:22.714Z,3604
2019-06-13T07:10:29.272Z,3564
2019-06-13T07:11:21.659Z,3572
2019-06-13T07:12:22.206Z,3588
2019-06-13T07:13:21.894Z,3592
2019-06-13T07:14:32.845Z,3620
2019-06-13T07:15:21.937Z,3640
2019-06-13T07:16:34.040Z,3644
2019-06-13T07:17:22.589Z,3692
2019-06-13T07:18:22.259Z,3796
2019-06-13T07:19:22.321Z,3932
2019-06-13T07:20:22.123Z,4128
2019-06-13T07:21:22.521Z,4380
2019-06-13T07:22:22.888Z,4656
2019-06-13T07:23:22.326Z,4860
2019-06-13T07:24:22.435Z,5044
2019-06-13T07:25:22.360Z,5284
2019-06-13T07:26:21.815Z,5508
2019-06-13T07:27:22.427Z,5668
2019-06-13T07:28:22.575Z,5796
2019-06-13T07:29:22.396Z,5940
2019-06-13T07:30:24.953Z,6140
2019-06-13T07:31:22.050Z,6444
2019-06-13T07:32:23.520Z,7056
2019-06-13T07:33:22.433Z,7568
2019-06-13T07:34:22.833Z,8064
2019-06-13T07:35:22.883Z,8352
2019-06-13T07:36:22.407Z,8668
2019-06-13T07:37:22.660Z,9296
2019-06-13T07:38:22.247Z,10460
2019-06-13T07:39:34.795Z,12788
2019-06-13T07:40:42.253Z,14532
2019-06-13T07:41:21.683Z,14980
2019-06-13T07:42:22.549Z,14660
2019-06-13T07:43:22.794Z,13980
2019-06-13T07:44:24.654Z,13528
2019-06-13T07:45:22.343Z,13720
2019-06-13T07:46:22.200Z,14488
2019-06-13T07:47:23.012Z,15172
2019-06-13T07:48:22.381Z,16024
2019-06-13T07:49:21.869Z,14816
2019-06-13T07:51:22.528Z,15956
2019-06-13T07:52:22.972Z,18144
2019-06-13T07:53:22.616Z,19168
2019-06-13T07:54:21.571Z,30976
2019-06-13T07:55:35.183Z,30912
2019-06-13T07:56:22.396Z,27872
2019-06-13T07:57:22.153Z,31680
2019-06-13T07:58:24.218Z,23584
2019-06-13T07:59:24.527Z,19776
2019-06-13T08:00:22.825Z,17888
2019-06-13T08:01:23.616Z,16960
2019-06-13T08:02:22.489Z,17792
2019-06-13T08:03:21.939Z,24000
2019-06-13T08:04:40.107Z,14444
2019-06-13T08:05:22.645Z,12860
2019-06-13T08:06:55.073Z,10260
2019-06-13T08:07:35.508Z,9720
2019-06-13T08:08:21.857Z,9340
2019-06-13T08:09:22.800Z,9192
2019-06-13T08:10:32.886Z,9040
2019-06-13T08:11:35.595Z,8892
2019-06-13T08:12:21.781Z,8836
2019-06-13T08:13:23.928Z,8732
2019-06-13T08:14:21.911Z,8808
2019-06-13T08:15:23.037Z,8864
2019-06-13T08:16:41.576Z,8836
2019-06-13T08:17:22.824Z,8860
2019-06-13T08:19:35.804Z,8952
2019-06-13T08:20:35.846Z,9068
2019-06-13T08:21:35.858Z,9164
2019-06-13T08:22:24.412Z,9312
2019-06-13T08:23:29.582Z,9584
2019-06-13T08:24:22.566Z,9828
2019-06-13T08:25:22.919Z,10176
2019-06-13T08:26:35.999Z,10396
2019-06-13T08:27:36.013Z,10588
2019-06-13T08:28:24.501Z,10640
2019-06-13T08:29:24.152Z,10468
2019-06-13T08:30:24.639Z,10468
2019-06-13T08:31:22.764Z,10340
2019-06-13T08:32:22.605Z,10592
2019-06-13T08:33:25.163Z,11216
2019-06-13T08:34:22.877Z,12284
2019-06-13T08:35:24.566Z,12680
2019-06-13T08:36:36.249Z,12708
2019-06-13T08:37:24.932Z,12520
2019-06-13T08:38:22.990Z,12116
2019-06-13T08:40:24.643Z,10952
2019-06-13T08:41:31.979Z,10428
2019-06-13T08:42:36.400Z,10156
2019-06-13T08:44:22.702Z,10552
2019-06-13T08:45:24.691Z,11092
2019-06-13T08:46:22.914Z,11756
2019-06-13T08:47:24.644Z,12968
2019-06-13T08:48:24.772Z,14024
2019-06-13T08:49:25.502Z,15208
2019-06-13T08:50:23.774Z,16312
2019-06-13T08:51:24.656Z,17760
2019-06-13T08:52:24.600Z,19328
2019-06-13T08:53:39.258Z,21440
2019-06-13T08:55:24.085Z,18304
2019-06-13T08:56:25.692Z,16312
2019-06-13T08:57:24.157Z,14640
2019-06-13T08:58:25.925Z,13728
2019-06-13T08:59:24.663Z,13428
2019-06-13T09:00:24.649Z,13624
2019-06-13T09:01:25.054Z,13704
2019-06-13T09:02:24.722Z,13656
2019-06-13T09:03:24.492Z,13556
2019-06-13T09:04:24.783Z,13208
2019-06-13T09:05:25.556Z,12760
2019-06-13T09:06:30.128Z,12256
2019-06-13T09:07:24.538Z,11936
2019-06-13T09:08:34.550Z,11692
2019-06-13T09:09:24.635Z,11676
2019-06-13T09:10:24.433Z,11760
2019-06-13T09:11:49.405Z,12060
2019-06-13T09:12:24.026Z,12372
2019-06-13T09:13:24.679Z,13364
2019-06-13T09:14:39.152Z,14572
2019-06-13T09:15:24.301Z,15156
2019-06-13T09:16:24.272Z,15732
2019-06-13T09:17:25.406Z,16016
2019-06-13T09:18:24.652Z,15832
2019-06-13T09:19:27.091Z,15424
2019-06-13T09:20:23.911Z,14764
2019-06-13T09:21:40.543Z,13676
2019-06-13T09:22:25.605Z,13032
2019-06-13T09:23:25.252Z,12444
2019-06-13T09:24:40.955Z,12200
2019-06-13T09:25:39.825Z,12184
2019-06-13T09:27:24.741Z,12768
2019-06-13T09:28:40.148Z,13216
2019-06-13T09:29:24.368Z,13472
2019-06-13T09:30:40.107Z,14264
2019-06-13T09:31:24.810Z,15124
2019-06-13T09:32:24.944Z,14016
2019-06-13T09:34:03.887Z,14100
2019-06-13T09:35:41.019Z,14008
2019-06-13T09:36:25.521Z,13976
2019-06-13T09:37:25.107Z,13896
2019-06-13T09:40:41.941Z,13736
2019-06-13T09:40:56.687Z,13752
2019-06-13T09:46:23.011Z,15124
2019-06-13T09:46:35.179Z,15132
2019-06-13T09:47:40.675Z,15392
2019-06-13T09:48:34.958Z,17920
2019-06-13T09:49:35.887Z,17824
2019-06-13T09:50:59.896Z,22592
2019-06-13T09:51:35.606Z,23744
2019-06-13T09:52:34.890Z,23648
2019-06-13T09:53:36.272Z,23072
2019-06-13T09:55:11.136Z,19296
2019-06-13T09:55:34.884Z,16272
2019-06-13T09:56:35.027Z,20064
2019-06-13T09:57:34.627Z,13128
2019-06-13T09:58:35.920Z,16532
2019-06-13T09:59:49.629Z,18528
2019-06-13T10:00:36.598Z,18496
2019-06-13T10:01:35.650Z,18112
2019-06-13T10:02:34.935Z,17440
2019-06-13T10:03:35.598Z,16580
2019-06-13T10:04:35.342Z,15952
2019-06-13T10:05:33.558Z,15396
2019-06-13T10:06:33.459Z,14936
2019-06-13T10:07:33.507Z,14524
2019-06-13T10:08:52.165Z,14080
2019-06-13T10:09:48.224Z,13824
2019-06-13T10:10:35.167Z,13652
2019-06-13T10:11:51.520Z,13448
2019-06-13T10:14:53.994Z,13052
2019-06-13T10:15:10.693Z,13012
2019-06-13T10:16:24.200Z,12936
2019-06-13T10:17:11.203Z,12852
2019-06-13T10:18:11.074Z,12780
2019-06-13T10:19:10.180Z,12688
2019-06-13T10:20:34.235Z,12560
2019-06-13T10:21:06.546Z,12528
2019-06-13T10:22:21.160Z,12536
2019-06-13T10:23:06.647Z,12492
2019-06-13T10:24:15.570Z,12412
2019-06-13T10:25:19.085Z,12376
2019-06-13T10:26:04.545Z,12340
2019-06-13T10:27:04.682Z,12292
2019-06-13T10:28:12.903Z,12228
2019-06-13T10:30:20.692Z,12120
2019-06-13T10:31:08.168Z,12084
2019-06-13T10:32:08.166Z,12060
2019-06-13T10:33:09.282Z,12036
2019-06-13T10:34:04.894Z,11964
2019-06-13T10:35:06.991Z,11912
2019-06-13T10:36:09.760Z,11844
2019-06-13T10:37:06.937Z,11832
2019-06-13T10:38:06.851Z,11768
2019-06-13T10:39:05.049Z,11744
2019-06-13T10:40:10.518Z,11668
2019-06-13T10:42:05.118Z,11532
2019-06-13T10:43:30.006Z,11556
2019-06-13T10:44:06.319Z,11496
2019-06-13T10:45:09.998Z,11472
2019-06-13T10:46:09.588Z,11428
2019-06-13T10:47:09.063Z,11352
2019-06-13T10:48:05.036Z,11336
2019-06-13T10:49:10.041Z,11296
2019-06-13T10:53:15.330Z,11112
2019-06-13T10:54:06.941Z,11080
2019-06-13T10:55:09.512Z,11060
2019-06-13T10:56:07.447Z,11020
2019-06-13T10:57:25.369Z,10968
2019-06-13T10:58:06.094Z,10944
2019-06-13T10:59:20.373Z,10880
2019-06-13T11:00:09.593Z,10844
2019-06-13T11:01:11.041Z,10792
2019-06-13T11:02:09.600Z,10736
2019-06-13T11:03:25.850Z,10660
2019-06-13T11:04:17.578Z,10652
2019-06-13T11:05:07.041Z,10600
2019-06-13T11:06:10.986Z,10532
2019-06-13T11:07:09.514Z,10488
2019-06-13T11:08:22.755Z,10472
2019-06-13T11:09:05.859Z,10460
2019-06-13T11:10:20.118Z,10380
2019-06-13T11:11:09.271Z,10384
2019-06-13T11:12:09.476Z,10340
2019-06-13T11:13:41.384Z,10328
2019-06-13T11:14:06.803Z,10316
2019-06-13T11:15:20.704Z,10200
2019-06-13T11:16:24.241Z,10048
2019-06-13T11:17:45.883Z,9776
2019-06-13T11:18:06.923Z,9696
2019-06-13T11:19:21.685Z,9464
2019-06-13T11:20:21.151Z,9268
2019-06-13T11:21:09.464Z,9152
2019-06-13T11:22:10.365Z,9004
2019-06-13T11:23:09.725Z,8860
2019-06-13T11:24:09.955Z,8712
2019-06-13T11:25:06.055Z,8580
2019-06-13T11:26:09.277Z,8452
2019-06-13T11:27:07.765Z,8332
2019-06-13T11:29:09.581Z,8136
2019-06-13T11:30:20.359Z,8036
2019-06-13T11:31:23.733Z,7968
2019-06-13T11:32:06.260Z,7880
2019-06-13T11:33:11.627Z,7836
2019-06-13T11:34:09.297Z,7824
2019-06-13T11:36:09.115Z,7716
2019-06-13T11:37:10.476Z,7644
2019-06-13T11:38:10.750Z,7572
2019-06-13T11:39:09.703Z,7484
2019-06-13T11:40:30.695Z,7356
2019-06-13T11:41:06.728Z,7264
2019-06-13T11:42:20.278Z,7200
2019-06-13T11:44:11.734Z,6996
2019-06-13T11:45:10.980Z,6944
2019-06-13T11:46:22.956Z,6860
2019-06-13T11:47:22.317Z,6796
2019-06-13T11:48:10.218Z,6788
2019-06-13T11:49:20.098Z,6788
2019-06-13T11:50:09.458Z,6740
2019-06-13T11:51:09.274Z,6696
2019-06-13T11:52:08.969Z,6612
2019-06-13T11:54:12.172Z,6472
2019-06-13T11:55:14.128Z,6432
2019-06-13T11:56:09.837Z,6396
2019-06-13T11:57:10.312Z,6344
2019-06-13T11:58:07.500Z,6284
2019-06-13T11:59:21.873Z,6232
2019-06-13T12:00:19.417Z,6196
2019-06-13T12:01:09.433Z,6148
2019-06-13T12:02:23.205Z,6128
2019-06-13T12:03:10.359Z,6116
2019-06-13T12:05:10.147Z,6064
2019-06-13T12:06:10.026Z,6052
2019-06-13T12:07:14.722Z,6048
2019-06-13T12:08:15.213Z,6052
2019-06-13T12:09:09.983Z,6048
2019-06-13T12:10:09.712Z,6048
2019-06-13T12:11:10.352Z,6080
2019-06-13T12:12:09.928Z,6112
2019-06-13T12:14:23.890Z,6196
2019-06-13T12:15:10.627Z,6212
2019-06-13T12:16:09.433Z,6284
2019-06-13T12:17:10.477Z,6320
2019-06-13T12:18:23.644Z,6336
2019-06-13T12:19:22.414Z,6348
2019-06-13T12:20:10.046Z,6356
2019-06-13T12:21:10.585Z,6388
2019-06-13T12:22:10.244Z,6400
2019-06-13T12:23:23.124Z,6392
2019-06-13T12:24:09.781Z,6392
2019-06-13T12:25:23.218Z,6408
2019-06-13T12:26:08.579Z,6380
2019-06-13T12:27:10.587Z,6340
2019-06-13T12:29:24.186Z,6288
2019-06-13T12:30:16.055Z,6264
2019-06-13T12:31:11.950Z,6208
2019-06-13T12:32:07.882Z,6208
2019-06-13T12:33:10.424Z,6208
2019-06-13T12:34:26.565Z,6172
2019-06-13T12:35:08.188Z,6184
2019-06-13T12:36:10.665Z,6168
2019-06-13T12:37:09.233Z,6196
2019-06-13T12:38:09.309Z,6220
2019-06-13T12:39:10.263Z,6252
2019-06-13T12:40:09.393Z,6316
2019-06-13T12:41:09.577Z,6388
2019-06-13T12:42:09.709Z,6496
2019-06-13T12:44:36.404Z,6868
2019-06-13T12:46:23.126Z,7132
2019-06-13T12:47:11.849Z,7276
2019-06-13T12:48:11.657Z,7412
2019-06-13T12:49:10.056Z,7600
2019-06-13T12:50:24.917Z,7776
2019-06-13T12:51:24.467Z,7948
2019-06-13T12:53:12.082Z,8252
2019-06-13T12:54:08.689Z,8408
2019-06-13T12:55:08.718Z,8528
2019-06-13T12:57:11.576Z,8536
2019-06-13T12:58:09.794Z,8392
2019-06-13T12:59:12.022Z,6104
2019-06-13T13:00:10.113Z,7044
2019-06-13T13:02:23.575Z,6532
2019-06-13T13:03:14.081Z,5892
2019-06-13T13:04:15.003Z,7636
2019-06-13T13:05:11.640Z,7480
2019-06-13T13:06:24.816Z,5556
2019-06-13T13:07:09.021Z,5036
2019-06-13T13:08:10.229Z,5052
2019-06-13T13:09:08.855Z,6624
2019-06-13T13:10:23.838Z,7020
2019-06-13T13:11:10.032Z,7192
2019-06-13T13:12:12.425Z,6936
2019-06-13T13:13:23.605Z,4792
2019-06-13T13:16:09.677Z,5056
2019-06-13T13:17:26.477Z,5256
2019-06-13T13:18:09.445Z,7488
2019-06-13T13:19:16.908Z,7548
2019-06-13T13:20:11.524Z,7820
2019-06-13T13:21:23.817Z,5420
2019-06-13T13:22:23.856Z,5036
2019-06-13T13:23:12.117Z,5068
2019-06-13T13:24:11.854Z,5212
2019-06-13T13:25:12.550Z,5620
2019-06-13T13:26:14.480Z,7952
2019-06-13T13:27:12.819Z,8720
2019-06-13T13:28:16.871Z,6472
2019-06-13T13:29:14.197Z,6612
2019-06-13T13:30:25.752Z,7748
2019-06-13T13:32:33.174Z,7440
2019-06-13T13:33:10.796Z,7488
2019-06-13T13:34:10.257Z,7912
2019-06-13T13:35:13.375Z,6884
2019-06-13T13:36:29.671Z,6560
2019-06-13T13:37:11.965Z,6604
2019-06-13T13:39:12.594Z,8616
2019-06-13T13:40:12.229Z,7932
2019-06-13T13:42:11.961Z,5456
2019-06-13T13:43:13.041Z,4976
2019-06-13T13:44:11.995Z,5372
2019-06-13T13:45:42.608Z,7160
2019-06-13T13:46:12.700Z,6936
2019-06-13T13:47:24.770Z,6896
2019-06-13T13:48:14.118Z,7224
2019-06-13T13:49:15.465Z,6556
2019-06-13T13:50:12.458Z,6460
2019-06-13T13:51:13.006Z,7432
2019-06-13T13:53:25.984Z,4716
2019-06-13T13:54:14.416Z,6988
2019-06-13T13:55:14.731Z,6856
2019-06-13T13:56:15.151Z,6124
2019-06-13T13:57:15.395Z,6648
2019-06-13T13:58:11.637Z,6656
2019-06-13T13:59:12.929Z,6644
2019-06-13T14:01:12.662Z,6544
2019-06-13T14:02:12.349Z,6496
2019-06-13T14:03:16.509Z,6404
2019-06-13T14:04:11.848Z,6308
2019-06-13T14:05:12.249Z,6416
2019-06-13T14:06:25.322Z,6412
2019-06-13T14:07:14.479Z,6428
2019-06-13T14:08:12.127Z,6312
2019-06-13T14:09:25.346Z,6264
2019-06-13T14:11:11.882Z,6192
2019-06-13T14:12:13.172Z,6216
2019-06-13T14:13:13.168Z,6172
2019-06-13T14:14:12.652Z,6144
2019-06-13T14:15:43.788Z,6160
2019-06-13T14:16:13.631Z,6160
2019-06-13T14:17:25.556Z,6124
2019-06-13T14:18:25.345Z,6140
2019-06-13T14:19:13.743Z,6140
2019-06-13T14:21:12.391Z,6132
2019-06-13T14:22:11.031Z,6136
2019-06-13T14:23:26.264Z,6140
2019-06-13T14:24:14.189Z,6144
2019-06-13T14:25:25.773Z,6132
2019-06-13T14:26:19.650Z,6112
2019-06-13T14:27:11.702Z,6096
2019-06-13T14:28:14.637Z,6084
2019-06-13T14:29:15.964Z,6076
2019-06-13T14:31:32.577Z,6036
2019-06-13T14:32:19.842Z,6044
2019-06-13T14:33:23.020Z,6028
2019-06-13T14:34:20.438Z,6016
2019-06-13T14:35:32.684Z,6016
2019-06-13T14:36:32.466Z,6016
2019-06-13T14:37:32.738Z,6012
2019-06-13T14:38:32.480Z,6024
2019-06-13T14:39:20.054Z,5992
2019-06-13T14:40:20.373Z,5960
2019-06-13T14:41:21.645Z,5980
2019-06-13T14:42:19.823Z,5968
2019-06-13T14:43:49.165Z,5944
2019-06-13T14:44:20.114Z,5956
2019-06-13T14:45:52.594Z,5980
2019-06-13T14:46:20.789Z,5992
2019-06-13T14:47:20.574Z,6012